Time;durP1;ratioP1;P1;durP2;ratioP2;P2;SDS_P1;SDS_P2;PMS_P1;PMS_P2;Temp;Humidity;BMP_temperature;BMP_pressure;BME280_temperature;BME280_humidity;BME280_pressure;Samples;Min_cycle;Max_cycle;Signal;HPM_P1;HPM_P2
2022/02/12 00:01:42;;;;;;;5.40;3.00;;;6.80;35.70;;;;;;10522798;28;20230;-69
2022/02/12 00:06:45;;;;;;;4.90;2.80;;;6.80;35.50;;;;;;10524958;28;20227;-69
2022/02/12 00:11:50;;;;;;;5.67;3.20;;;6.80;35.70;;;;;;10515446;28;20220;-69
2022/02/12 00:16:53;;;;;;;3.60;2.43;;;6.80;35.60;;;;;;10524436;28;20233;-69
2022/02/12 00:21:56;;;;;;;4.23;2.73;;;6.70;35.40;;;;;;10523868;28;20226;-69
2022/02/12 00:27:00;;;;;;;3.80;2.60;;;6.70;35.50;;;;;;10521781;28;20224;-69
2022/02/12 00:32:04;;;;;;;2.30;2.10;;;6.70;35.60;;;;;;10523898;28;20261;-69
2022/02/12 00:37:08;;;;;;;4.30;2.50;;;6.70;35.70;;;;;;10522192;28;20243;-69
2022/02/12 00:42:13;;;;;;;2.53;2.10;;;6.70;35.80;;;;;;10522675;28;20750;-68
2022/02/12 00:47:16;;;;;;;5.97;2.57;;;6.70;35.80;;;;;;10519578;28;20228;-69
2022/02/12 00:52:19;;;;;;;4.60;2.90;;;6.70;35.80;;;;;;10521867;28;20235;-69
2022/02/12 00:57:24;;;;;;;5.17;3.03;;;6.70;35.80;;;;;;10520785;28;20602;-69
2022/02/12 01:02:27;;;;;;;4.03;2.97;;;6.80;35.70;;;;;;10521212;28;20315;-69
2022/02/12 01:07:30;;;;;;;4.20;2.93;;;6.70;35.60;;;;;;10522064;28;20222;-70
2022/02/12 01:12:36;;;;;;;6.30;3.43;;;6.70;35.70;;;;;;10523145;28;20243;-69
2022/02/12 01:17:39;;;;;;;4.20;3.00;;;6.70;35.80;;;;;;10521811;28;20230;-69
2022/02/12 01:22:42;;;;;;;7.37;4.07;;;6.60;35.80;;;;;;10523522;28;20707;-70
2022/02/12 01:27:47;;;;;;;7.40;3.80;;;6.60;35.70;;;;;;10519874;28;20274;-70
2022/02/12 01:32:51;;;;;;;6.17;3.87;;;6.60;35.80;;;;;;10520886;28;20298;-69
2022/02/12 01:37:55;;;;;;;7.43;3.73;;;6.60;35.80;;;;;;10510586;28;20232;-69
2022/02/12 01:43:02;;;;;;;5.27;3.60;;;6.60;35.90;;;;;;10516823;28;20699;-68
2022/02/12 01:48:05;;;;;;;7.73;4.23;;;6.60;35.90;;;;;;10517900;28;20517;-68
2022/02/12 01:53:09;;;;;;;7.27;3.37;;;6.60;35.50;;;;;;10523753;28;20230;-68
2022/02/12 01:58:13;;;;;;;5.00;3.17;;;6.60;35.50;;;;;;10528089;28;20230;-68
2022/02/12 02:03:17;;;;;;;5.53;2.97;;;6.50;35.60;;;;;;10527213;28;20215;-68
2022/02/12 02:08:20;;;;;;;5.13;3.10;;;6.40;35.50;;;;;;10527238;28;20227;-68
2022/02/12 02:13:26;;;;;;;4.60;3.23;;;6.30;35.60;;;;;;10530602;28;20231;-68
2022/02/12 02:18:29;;;;;;;3.97;2.90;;;6.30;35.90;;;;;;10528158;28;20226;-68
2022/02/12 02:23:35;;;;;;;5.70;3.17;;;6.20;35.80;;;;;;10517206;28;20234;-68
2022/02/12 02:28:38;;;;;;;8.20;3.17;;;6.20;35.90;;;;;;10528818;28;20622;-68
2022/02/12 02:33:41;;;;;;;5.43;3.83;;;6.20;35.80;;;;;;10529579;28;20227;-69
2022/02/12 02:38:46;;;;;;;4.97;3.20;;;6.10;35.80;;;;;;10525928;28;20234;-69
2022/02/12 02:43:49;;;;;;;5.70;3.33;;;6.00;35.60;;;;;;10523401;28;20676;-68
2022/02/12 02:48:52;;;;;;;6.00;3.57;;;5.90;35.70;;;;;;10525317;28;20220;-68
2022/02/12 02:59:18;;;;;;;4.63;3.20;;;5.90;36.10;;;;;;10525849;28;20224;-68
2022/02/12 03:04:22;;;;;;;3.83;3.03;;;5.80;35.90;;;;;;10527356;28;20718;-68
2022/02/12 03:09:27;;;;;;;4.30;2.90;;;5.90;35.90;;;;;;10525856;28;20230;-69
2022/02/12 03:14:30;;;;;;;5.07;3.17;;;5.90;35.90;;;;;;10524611;28;20703;-69
2022/02/12 03:19:34;;;;;;;5.53;3.17;;;5.80;35.80;;;;;;10524306;28;20236;-69
2022/02/12 03:24:38;;;;;;;4.70;2.93;;;5.90;35.70;;;;;;10528012;28;20225;-69
2022/02/12 03:29:41;;;;;;;6.40;3.40;;;5.90;35.70;;;;;;10521195;28;20243;-69
2022/02/12 03:34:44;;;;;;;3.80;2.87;;;5.80;36.30;;;;;;10527398;28;20228;-69
2022/02/12 03:39:49;;;;;;;4.87;3.23;;;5.80;35.60;;;;;;10521106;28;20324;-69
2022/02/12 03:44:53;;;;;;;4.07;2.83;;;5.70;35.70;;;;;;10523573;28;20230;-69
2022/02/12 03:49:56;;;;;;;4.10;2.90;;;5.70;35.60;;;;;;10521858;28;20223;-69
2022/02/12 03:55:00;;;;;;;4.27;3.43;;;5.70;35.40;;;;;;10525882;28;20215;-69
2022/02/12 04:00:05;;;;;;;8.50;4.47;;;5.70;35.60;;;;;;10520918;28;20572;-69
2022/02/12 04:05:10;;;;;;;5.63;3.40;;;5.60;35.40;;;;;;10524663;28;20215;-68
2022/02/12 04:10:16;;;;;;;4.00;3.10;;;5.60;35.40;;;;;;10525115;28;20231;-69
2022/02/12 04:15:20;;;;;;;7.13;4.00;;;5.60;35.60;;;;;;10523926;28;20695;-69
2022/02/12 04:20:26;;;;;;;7.50;3.93;;;5.50;35.30;;;;;;10526167;28;20245;-69
2022/02/12 04:25:30;;;;;;;4.80;3.27;;;5.50;35.30;;;;;;10523628;28;20310;-70
2022/02/12 04:30:35;;;;;;;6.70;3.80;;;5.40;35.30;;;;;;10520479;28;20233;-69
2022/02/12 04:35:39;;;;;;;7.13;3.63;;;5.30;35.20;;;;;;10524521;28;20227;-73
2022/02/12 04:40:44;;;;;;;7.47;4.13;;;5.20;35.30;;;;;;10520412;28;20663;-73
2022/02/12 04:45:47;;;;;;;5.60;3.97;;;5.20;35.40;;;;;;10523126;28;20227;-73
2022/02/12 04:50:50;;;;;;;5.33;3.47;;;5.20;35.40;;;;;;10520267;28;20219;-73
2022/02/12 04:55:55;;;;;;;5.70;3.53;;;5.10;35.40;;;;;;10519597;28;20227;-73
2022/02/12 05:00:58;;;;;;;5.20;3.20;;;5.10;35.50;;;;;;10523726;28;20249;-73
2022/02/12 05:06:01;;;;;;;6.77;4.03;;;5.10;35.40;;;;;;10518821;28;20324;-73
2022/02/12 05:11:07;;;;;;;8.73;3.90;;;5.00;35.40;;;;;;10521382;28;20596;-73
2022/02/12 05:16:12;;;;;;;7.43;3.93;;;5.00;35.40;;;;;;10523647;28;20246;-73
2022/02/12 05:21:15;;;;;;;5.73;3.70;;;5.00;35.40;;;;;;10520005;28;20226;-73
2022/02/12 05:26:20;;;;;;;4.40;3.03;;;5.00;35.20;;;;;;10522383;28;20258;-69
2022/02/12 05:31:23;;;;;;;6.30;3.90;;;4.90;35.40;;;;;;10520246;28;20243;-68
2022/02/12 05:36:26;;;;;;;4.30;3.27;;;4.90;35.30;;;;;;10520215;28;20224;-69
2022/02/12 05:41:31;;;;;;;2.77;2.57;;;4.90;35.30;;;;;;10517477;28;20231;-69
2022/02/12 05:46:34;;;;;;;9.17;4.60;;;4.80;35.30;;;;;;10521196;28;20238;-69
2022/02/12 05:51:37;;;;;;;5.93;3.90;;;4.70;35.30;;;;;;10516369;28;20594;-68
2022/02/12 05:56:42;;;;;;;5.33;3.30;;;4.60;35.20;;;;;;10513157;28;20566;-68
2022/02/12 06:01:45;;;;;;;9.03;4.53;;;4.50;35.20;;;;;;10518830;28;20220;-69
2022/02/12 06:06:48;;;;;;;7.37;4.23;;;4.50;35.40;;;;;;10519767;28;20220;-69
2022/02/12 06:11:52;;;;;;;7.83;3.90;;;4.50;35.40;;;;;;10518503;28;20227;-68
2022/02/12 06:16:57;;;;;;;6.30;3.90;;;4.50;35.40;;;;;;10519815;28;20723;-69
2022/02/12 06:22:00;;;;;;;6.40;4.07;;;4.50;35.40;;;;;;10518546;28;20219;-73
2022/02/12 06:27:06;;;;;;;4.23;3.73;;;4.40;35.20;;;;;;10520408;28;20220;-72
2022/02/12 06:32:09;;;;;;;6.83;4.70;;;4.30;35.30;;;;;;10518240;28;20735;-73
2022/02/12 06:37:12;;;;;;;5.77;4.30;;;4.30;35.30;;;;;;10520611;28;20238;-73
2022/02/12 06:42:18;;;;;;;6.37;5.03;;;4.20;35.20;;;;;;10520319;28;20428;-73
2022/02/12 06:47:21;;;;;;;5.93;4.73;;;4.30;35.40;;;;;;10524542;28;20506;-72
2022/02/12 06:52:24;;;;;;;7.90;6.10;;;4.10;35.40;;;;;;10523138;28;20624;-73
2022/02/12 06:57:29;;;;;;;8.00;6.10;;;4.10;35.50;;;;;;10524832;28;20782;-67
2022/02/12 07:02:32;;;;;;;8.73;5.63;;;4.20;35.60;;;;;;10525524;28;20254;-68
2022/02/12 07:07:43;;;;;;;7.20;6.10;;;4.00;35.50;;;;;;10522113;28;20595;-68
2022/02/12 07:12:48;;;;;;;8.67;6.80;;;4.00;36.00;;;;;;10524255;28;20220;-68
2022/02/12 07:17:53;;;;;;;18.03;10.40;;;4.00;35.90;;;;;;10523987;28;20230;-68
2022/02/12 07:22:56;;;;;;;18.43;9.80;;;4.00;35.90;;;;;;10522505;28;20243;-73
2022/02/12 07:28:01;;;;;;;12.43;7.20;;;4.00;36.00;;;;;;10517628;28;20746;-73
2022/02/12 07:33:04;;;;;;;14.43;7.20;;;4.00;36.00;;;;;;10518579;28;20226;-73
2022/02/12 07:38:08;;;;;;;8.80;6.10;;;4.00;35.90;;;;;;10520558;28;20238;-73
2022/02/12 07:43:13;;;;;;;8.90;6.03;;;4.00;36.00;;;;;;10520866;28;20224;-73
2022/02/12 07:48:16;;;;;;;8.27;5.67;;;4.00;36.00;;;;;;10518940;28;20223;-74
2022/02/12 07:53:19;;;;;;;5.80;5.20;;;4.10;36.10;;;;;;10519452;28;20227;-69
2022/02/12 07:58:24;;;;;;;8.37;5.37;;;4.10;36.30;;;;;;10518266;28;20601;-69
2022/02/12 08:03:27;;;;;;;6.53;4.73;;;4.20;36.70;;;;;;10522177;28;20707;-68
2022/02/12 08:08:30;;;;;;;7.70;4.23;;;4.30;36.80;;;;;;10520686;28;20231;-68
2022/02/12 08:13:34;;;;;;;6.83;5.47;;;4.40;37.10;;;;;;10521756;28;20643;-68
2022/02/12 08:18:37;;;;;;;5.37;4.80;;;4.60;37.60;;;;;;10519218;28;20234;-68
2022/02/12 08:23:41;;;;;;;6.87;5.40;;;4.70;37.50;;;;;;10520122;28;20217;-68
2022/02/12 08:28:45;;;;;;;7.87;4.97;;;4.80;37.60;;;;;;10518615;28;20231;-67
2022/02/12 08:33:48;;;;;;;6.30;5.00;;;5.00;38.00;;;;;;10521536;28;20219;-68
2022/02/12 08:38:51;;;;;;;5.20;4.20;;;5.20;37.70;;;;;;10517776;28;20230;-68
2022/02/12 08:43:56;;;;;;;7.07;5.10;;;5.40;38.00;;;;;;10521461;28;20223;-68
2022/02/12 08:48:59;;;;;;;6.67;4.53;;;5.60;38.20;;;;;;10520692;28;20219;-68
2022/02/12 08:54:02;;;;;;;7.73;5.00;;;5.80;38.10;;;;;;10521904;28;20591;-68
2022/02/12 08:59:08;;;;;;;6.47;4.80;;;6.00;38.10;;;;;;10518854;28;20223;-68
2022/02/12 09:04:12;;;;;;;6.60;5.20;;;6.30;38.30;;;;;;10518346;28;20715;-68
2022/02/12 09:09:16;;;;;;;9.57;5.20;;;6.50;38.00;;;;;;10521981;28;20706;-68
2022/02/12 09:14:20;;;;;;;6.70;4.60;;;6.60;38.10;;;;;;10522869;28;20239;-71
2022/02/12 09:19:23;;;;;;;6.60;4.90;;;6.80;38.20;;;;;;10518562;28;20231;-69
2022/02/12 09:24:27;;;;;;;7.40;4.70;;;6.90;38.30;;;;;;10519161;28;20230;-69
2022/02/12 09:29:32;;;;;;;7.97;4.90;;;7.10;37.90;;;;;;10522342;28;20224;-70
2022/02/12 09:34:35;;;;;;;7.13;4.63;;;7.20;37.80;;;;;;10518582;28;20743;-70
2022/02/12 09:39:39;;;;;;;8.20;4.67;;;7.30;37.60;;;;;;10517825;28;20575;-70
2022/02/12 09:44:44;;;;;;;6.07;5.20;;;7.40;37.70;;;;;;10519587;28;20807;-71
2022/02/12 09:49:49;;;;;;;7.50;5.33;;;7.60;37.80;;;;;;10515648;28;20247;-71
2022/02/12 09:54:52;;;;;;;9.03;6.13;;;7.70;37.70;;;;;;10517141;28;20322;-71
2022/02/12 09:59:59;;;;;;;9.40;5.40;;;8.00;37.60;;;;;;10519636;28;20227;-71
2022/02/12 10:05:23;;;;;;;8.53;5.67;;;8.10;37.20;;;;;;10517349;28;20219;-71
2022/02/12 10:10:28;;;;;;;10.40;7.00;;;8.30;37.20;;;;;;10516129;28;20234;-71
2022/02/12 10:15:32;;;;;;;7.30;6.37;;;8.40;37.20;;;;;;10524211;28;20227;-71
2022/02/12 10:20:39;;;;;;;15.67;6.83;;;8.60;36.90;;;;;;10528520;28;20220;-71
2022/02/12 10:25:44;;;;;;;12.13;7.33;;;8.80;36.90;;;;;;10529338;28;20604;-76
2022/02/12 10:30:49;;;;;;;10.37;7.50;;;8.90;36.70;;;;;;10524926;28;20230;-71
2022/02/12 10:35:56;;;;;;;10.70;8.13;;;9.00;36.40;;;;;;10525508;28;20237;-71
2022/02/12 10:41:07;;;;;;;9.23;7.40;;;9.20;36.10;;;;;;10524179;28;20219;-72
2022/02/12 10:46:11;;;;;;;7.60;6.00;;;9.30;35.50;;;;;;10522453;28;20223;-72
2022/02/12 10:51:16;;;;;;;6.50;5.10;;;9.40;35.70;;;;;;10524368;28;20227;-69
2022/02/12 10:56:19;;;;;;;6.20;4.70;;;9.50;35.60;;;;;;10523078;28;20227;-73
2022/02/12 11:01:24;;;;;;;8.83;5.30;;;9.60;35.50;;;;;;10524183;28;20223;-73
2022/02/12 11:06:27;;;;;;;6.37;4.70;;;9.70;34.90;;;;;;10524553;28;20235;-72
2022/02/12 11:11:31;;;;;;;5.93;4.27;;;9.80;35.00;;;;;;10525612;28;20215;-72
2022/02/12 11:16:36;;;;;;;6.33;4.33;;;9.90;34.70;;;;;;10524011;28;20228;-72
2022/02/12 11:21:40;;;;;;;4.40;4.00;;;10.00;33.10;;;;;;10521908;28;20222;-73
2022/02/12 11:26:44;;;;;;;4.40;3.80;;;10.00;32.70;;;;;;10523851;28;20227;-72
2022/02/12 11:32:08;;;;;;;7.90;4.17;;;10.00;32.70;;;;;;10523164;28;20223;-72
2022/02/12 11:37:17;;;;;;;4.20;3.80;;;10.00;32.00;;;;;;10522540;28;20679;-73
2022/02/12 11:42:39;;;;;;;5.83;3.90;;;10.10;32.20;;;;;;10522842;28;20220;-72
2022/02/12 11:48:19;;;;;;;5.60;4.30;;;10.20;31.30;;;;;;10519189;28;20230;-72
2022/02/12 11:53:34;;;;;;;5.40;3.90;;;10.20;30.40;;;;;;10525179;28;20254;-72
2022/02/12 11:59:00;;;;;;;6.43;4.47;;;10.20;30.10;;;;;;10522109;28;20227;-72
2022/02/12 12:04:06;;;;;;;5.10;4.27;;;10.10;30.60;;;;;;10523244;28;20216;-71
2022/02/12 12:09:10;;;;;;;6.10;4.23;;;10.20;31.30;;;;;;10524467;28;20717;-71
2022/02/12 12:14:34;;;;;;;5.53;3.97;;;10.20;32.10;;;;;;10518584;28;20220;-71
2022/02/12 12:19:42;;;;;;;4.23;3.50;;;10.20;30.20;;;;;;10524152;28;20595;-71
2022/02/12 12:24:51;;;;;;;3.73;3.17;;;10.20;30.10;;;;;;10523854;28;20251;-71
2022/02/12 12:35:17;;;;;;;4.47;3.50;;;10.10;30.40;;;;;;10519784;28;20223;-70
2022/02/12 12:40:28;;;;;;;4.87;3.60;;;10.00;29.60;;;;;;10520009;28;20235;-70
2022/02/12 12:45:31;;;;;;;4.17;3.40;;;9.90;30.30;;;;;;10522307;28;20604;-70
2022/02/12 12:50:37;;;;;;;6.20;4.00;;;9.80;31.50;;;;;;10516831;28;20625;-70
2022/02/12 12:55:46;;;;;;;5.53;4.17;;;9.80;31.40;;;;;;10512712;28;20230;-71
2022/02/12 13:00:50;;;;;;;6.47;4.13;;;9.80;31.20;;;;;;10511026;28;20219;-71
2022/02/12 13:06:04;;;;;;;5.43;4.13;;;9.90;32.10;;;;;;10510311;28;20273;-71
2022/02/12 13:11:09;;;;;;;4.57;3.37;;;10.00;30.60;;;;;;10511914;28;20258;-71
2022/02/12 13:16:13;;;;;;;3.50;2.93;;;10.00;31.10;;;;;;10508928;28;20535;-71
2022/02/12 13:21:18;;;;;;;3.20;2.90;;;10.10;30.00;;;;;;10508469;28;20223;-71
2022/02/12 13:26:21;;;;;;;4.20;3.20;;;10.10;30.00;;;;;;10511673;28;20735;-71
2022/02/12 13:31:26;;;;;;;3.63;3.33;;;10.10;29.60;;;;;;10510484;28;20236;-72
2022/02/12 13:36:41;;;;;;;3.83;2.70;;;10.10;29.70;;;;;;10512327;28;20686;-72
2022/02/12 13:41:45;;;;;;;3.47;3.10;;;10.10;29.10;;;;;;10510935;28;20220;-71
2022/02/12 13:46:48;;;;;;;3.43;2.30;;;10.00;29.10;;;;;;10509248;28;20338;-72
2022/02/12 13:51:58;;;;;;;4.63;2.40;;;10.00;29.10;;;;;;10518957;28;20219;-72
2022/02/12 13:57:04;;;;;;;3.07;2.73;;;10.00;28.60;;;;;;10518827;28;20227;-72
2022/02/12 14:02:09;;;;;;;2.87;2.30;;;10.00;29.30;;;;;;10517920;28;20220;-71
2022/02/12 14:07:13;;;;;;;3.07;2.50;;;10.00;30.00;;;;;;10522027;28;20240;-72
2022/02/12 14:12:19;;;;;;;5.03;2.67;;;10.00;29.30;;;;;;10520092;28;20729;-72
2022/02/12 14:17:23;;;;;;;3.93;2.90;;;10.00;30.00;;;;;;10526689;28;20227;-72
2022/02/12 14:22:27;;;;;;;2.90;2.70;;;10.00;29.70;;;;;;10527232;28;20251;-71
2022/02/12 14:27:31;;;;;;;5.33;2.70;;;10.10;29.60;;;;;;10531775;28;20232;-72
2022/02/12 14:32:34;;;;;;;3.17;2.60;;;10.10;29.50;;;;;;10529237;28;20703;-71
2022/02/12 14:37:38;;;;;;;3.40;2.80;;;10.10;30.00;;;;;;10527286;28;20523;-72
2022/02/12 14:42:41;;;;;;;3.80;2.80;;;10.10;29.10;;;;;;10528965;28;20219;-71
2022/02/12 14:47:44;;;;;;;2.57;2.33;;;10.10;29.50;;;;;;10525815;28;20246;-72
2022/02/12 14:52:49;;;;;;;3.53;2.40;;;10.00;29.90;;;;;;10528228;28;20227;-72
2022/02/12 14:57:52;;;;;;;4.67;2.50;;;10.00;29.80;;;;;;10526221;28;20747;-72
2022/02/12 15:02:57;;;;;;;3.60;2.57;;;10.10;29.70;;;;;;10524895;28;20714;-72
2022/02/12 15:08:02;;;;;;;2.83;2.50;;;10.10;29.50;;;;;;10527619;28;20235;-72
2022/02/12 15:13:05;;;;;;;2.60;2.40;;;10.00;29.10;;;;;;10522784;28;20220;-71
2022/02/12 15:18:10;;;;;;;3.07;2.60;;;9.90;30.00;;;;;;10528010;28;20653;-71
2022/02/12 15:23:15;;;;;;;3.60;2.00;;;9.90;29.90;;;;;;10520264;28;20223;-71
2022/02/12 15:28:18;;;;;;;2.53;2.33;;;9.90;29.90;;;;;;10525715;28;20594;-71
2022/02/12 15:33:21;;;;;;;2.33;2.13;;;9.80;30.30;;;;;;10522610;28;20222;-77
2022/02/12 15:38:28;;;;;;;3.30;2.50;;;9.70;30.20;;;;;;10525330;28;20235;-71
2022/02/12 15:43:35;;;;;;;2.63;2.43;;;9.70;30.30;;;;;;10523033;28;20226;-71
2022/02/12 15:48:38;;;;;;;2.67;2.20;;;9.70;30.40;;;;;;10522562;28;20238;-72
2022/02/12 15:53:43;;;;;;;3.20;2.17;;;9.70;30.50;;;;;;10525759;28;20254;-72
2022/02/12 15:58:46;;;;;;;3.80;2.90;;;9.70;30.10;;;;;;10524958;28;20219;-72
2022/02/12 16:03:49;;;;;;;3.43;2.47;;;9.70;30.20;;;;;;10523083;28;20224;-72
2022/02/12 16:08:54;;;;;;;2.70;2.50;;;9.60;30.30;;;;;;10522915;28;20579;-72
2022/02/12 16:13:57;;;;;;;3.10;2.30;;;9.50;30.20;;;;;;10520263;28;20220;-72
2022/02/12 16:19:01;;;;;;;6.33;2.37;;;9.50;30.20;;;;;;10522951;28;20227;-72
2022/02/12 16:24:06;;;;;;;3.97;2.30;;;9.50;30.20;;;;;;10522074;28;20224;-72
2022/02/12 16:29:09;;;;;;;4.30;1.93;;;9.40;29.90;;;;;;10519771;28;20623;-72
2022/02/12 16:34:12;;;;;;;7.17;2.20;;;9.40;30.10;;;;;;10522708;28;20590;-71
2022/02/12 16:39:19;;;;;;;4.70;2.50;;;9.40;30.30;;;;;;10522710;28;20591;-71
2022/02/12 16:44:22;;;;;;;4.17;2.83;;;9.40;30.10;;;;;;10523838;28;20227;-71
2022/02/12 16:49:25;;;;;;;6.23;2.70;;;9.40;30.30;;;;;;10518598;28;20693;-70
2022/02/12 16:54:30;;;;;;;4.30;2.50;;;9.40;30.40;;;;;;10522128;28;20224;-69
2022/02/12 16:59:33;;;;;;;4.13;2.93;;;9.40;30.20;;;;;;10518098;28;20241;-74
2022/02/12 17:04:37;;;;;;;4.13;3.70;;;9.40;30.30;;;;;;10520491;28;20220;-74
2022/02/12 17:09:41;;;;;;;4.10;3.37;;;9.40;30.20;;;;;;10518597;28;20234;-73
2022/02/12 17:14:45;;;;;;;7.07;4.83;;;9.40;30.20;;;;;;10519301;28;20683;-74
2022/02/12 17:19:49;;;;;;;9.47;8.00;;;9.30;30.30;;;;;;10518211;28;20227;-73
2022/02/12 17:24:54;;;;;;;9.77;8.43;;;9.30;30.10;;;;;;10519849;28;20216;-74
2022/02/12 17:29:57;;;;;;;5.63;4.90;;;9.20;30.10;;;;;;10521607;28;20242;-74
2022/02/12 17:35:02;;;;;;;6.27;4.83;;;9.10;30.10;;;;;;10518270;28;20287;-73
2022/02/12 17:40:09;;;;;;;5.83;4.40;;;9.00;30.20;;;;;;10520825;28;20230;-73
2022/02/12 17:45:17;;;;;;;4.10;3.10;;;8.90;30.00;;;;;;10519406;28;20219;-73
2022/02/12 17:50:20;;;;;;;3.93;3.57;;;8.70;30.20;;;;;;10519515;28;20726;-73
2022/02/12 17:55:25;;;;;;;5.70;5.20;;;8.70;30.30;;;;;;10520656;28;20227;-73
2022/02/12 18:00:29;;;;;;;14.00;9.27;;;8.60;30.20;;;;;;10519230;28;20597;-73
2022/02/12 18:05:33;;;;;;;6.90;5.33;;;8.50;30.30;;;;;;10519225;28;20219;-73
2022/02/12 18:10:37;;;;;;;8.53;5.90;;;8.40;30.30;;;;;;10521307;28;20224;-73
2022/02/12 18:15:41;;;;;;;7.37;5.33;;;8.30;30.20;;;;;;10519828;28;20699;-73
2022/02/12 18:20:44;;;;;;;5.40;4.90;;;8.20;31.00;;;;;;10521439;28;20719;-73
2022/02/12 18:25:49;;;;;;;5.07;4.57;;;8.10;31.10;;;;;;10512889;28;20228;-72
2022/02/12 18:30:52;;;;;;;5.80;5.00;;;8.00;30.80;;;;;;10512178;28;20238;-73
2022/02/12 18:35:55;;;;;;;9.70;8.70;;;8.00;30.90;;;;;;10515103;28;20234;-72
2022/02/12 18:41:01;;;;;;;9.60;8.70;;;7.90;30.70;;;;;;10518602;28;20701;-73
2022/02/12 18:46:05;;;;;;;10.73;8.47;;;7.80;30.70;;;;;;10520090;28;20223;-73
2022/02/12 18:51:08;;;;;;;10.33;9.33;;;7.70;30.60;;;;;;10517679;28;20234;-73
2022/02/12 18:56:13;;;;;;;10.97;9.87;;;7.60;31.10;;;;;;10521789;28;20729;-73
2022/02/12 19:01:18;;;;;;;12.13;10.57;;;7.50;30.40;;;;;;10520377;28;20223;-73
2022/02/12 19:06:21;;;;;;;10.50;9.47;;;7.40;30.60;;;;;;10525218;28;20242;-73
2022/02/12 19:11:25;;;;;;;11.53;9.43;;;7.30;30.70;;;;;;10527232;28;20598;-73
2022/02/12 19:16:29;;;;;;;12.30;9.40;;;7.10;30.70;;;;;;10522776;28;20703;-73
2022/02/12 19:21:32;;;;;;;13.70;12.30;;;7.10;30.90;;;;;;10524023;28;20564;-73
2022/02/12 19:26:38;;;;;;;13.00;11.43;;;7.00;30.90;;;;;;10527314;28;20540;-73
2022/02/12 19:31:41;;;;;;;14.53;12.77;;;6.90;31.00;;;;;;10525420;28;20639;-73
2022/02/12 19:36:45;;;;;;;13.50;12.10;;;6.70;31.00;;;;;;10526270;28;20227;-73
2022/02/12 19:41:49;;;;;;;17.00;13.90;;;6.60;31.10;;;;;;10525502;28;20223;-73
2022/02/12 19:46:52;;;;;;;12.90;11.50;;;6.60;31.20;;;;;;10525585;28;20224;-73
2022/02/12 19:51:55;;;;;;;16.20;12.97;;;6.50;31.10;;;;;;10521652;28;20220;-73
2022/02/12 19:57:01;;;;;;;13.60;12.20;;;6.40;31.30;;;;;;10522876;28;20246;-71
2022/02/12 20:02:05;;;;;;;12.50;10.27;;;6.40;31.50;;;;;;10509181;28;20219;-71
2022/02/12 20:07:08;;;;;;;30.83;19.37;;;6.30;31.40;;;;;;10510238;28;20373;-71
2022/02/12 20:12:13;;;;;;;38.60;29.70;;;6.20;31.40;;;;;;10506884;28;20228;-71
2022/02/12 20:17:19;;;;;;;20.80;16.83;;;6.20;31.60;;;;;;10507857;28;20748;-71
2022/02/12 20:22:23;;;;;;;17.77;14.60;;;6.10;31.40;;;;;;10508744;28;20934;-72
2022/02/12 20:27:27;;;;;;;13.33;11.17;;;6.00;31.50;;;;;;10507995;28;20223;-71
2022/02/12 20:32:31;;;;;;;12.07;10.20;;;5.90;31.50;;;;;;10509253;28;20596;-71
2022/02/12 20:37:34;;;;;;;16.93;14.10;;;5.80;31.40;;;;;;10504240;28;20579;-69
2022/02/12 20:42:39;;;;;;;11.73;10.53;;;5.80;31.60;;;;;;10505110;28;20231;-69
2022/02/12 20:47:42;;;;;;;14.37;12.07;;;5.80;31.70;;;;;;10505563;28;20252;-69
2022/02/12 20:52:45;;;;;;;14.23;12.17;;;5.70;31.60;;;;;;10506161;28;20230;-69
2022/02/12 20:57:50;;;;;;;15.47;13.43;;;5.60;31.70;;;;;;10505659;28;20250;-70
2022/02/12 21:02:54;;;;;;;12.67;11.27;;;5.50;31.90;;;;;;10507470;28;20215;-69
2022/02/12 21:07:57;;;;;;;14.67;12.13;;;5.50;31.90;;;;;;10502910;28;20223;-70
2022/02/12 21:13:02;;;;;;;13.27;10.33;;;5.50;31.90;;;;;;10505815;28;20753;-69
2022/02/12 21:18:05;;;;;;;10.93;9.73;;;5.40;31.90;;;;;;10504091;28;20243;-73
2022/02/12 21:23:09;;;;;;;9.40;8.40;;;5.30;32.00;;;;;;10505476;28;20250;-73
2022/02/12 21:28:13;;;;;;;11.77;9.57;;;5.20;32.10;;;;;;10507117;28;20219;-74
2022/02/12 21:33:17;;;;;;;9.00;8.07;;;5.10;32.30;;;;;;10505226;28;20224;-73
2022/02/12 21:38:21;;;;;;;15.13;12.03;;;5.00;32.30;;;;;;10507500;28;20243;-73
2022/02/12 21:43:25;;;;;;;16.30;11.97;;;5.00;32.40;;;;;;10505117;28;20233;-73
2022/02/12 21:48:29;;;;;;;12.33;10.23;;;4.90;32.60;;;;;;10502562;28;20234;-71
2022/02/12 21:53:34;;;;;;;9.33;8.30;;;4.90;32.30;;;;;;10503845;28;20253;-71
2022/02/12 21:58:38;;;;;;;9.37;8.27;;;4.90;32.40;;;;;;10508789;28;20227;-70
2022/02/12 22:03:42;;;;;;;10.17;9.07;;;4.90;32.60;;;;;;10516054;28;20223;-70
2022/02/12 22:09:05;;;;;;;10.50;8.53;;;4.80;32.40;;;;;;10520265;28;20219;-70
2022/02/12 22:14:09;;;;;;;9.50;8.50;;;4.80;32.50;;;;;;10524269;28;20234;-70
2022/02/12 22:19:13;;;;;;;10.47;8.03;;;4.80;32.60;;;;;;10520614;28;20257;-70
2022/02/12 22:24:17;;;;;;;8.73;7.53;;;4.70;32.50;;;;;;10520437;28;20233;-68
2022/02/12 22:29:21;;;;;;;8.80;7.17;;;4.60;32.50;;;;;;10519916;28;20661;-68
2022/02/12 22:34:26;;;;;;;8.87;7.67;;;4.60;32.60;;;;;;10520133;28;20228;-68
2022/02/12 22:39:29;;;;;;;9.83;8.60;;;4.60;32.60;;;;;;10520832;28;20303;-68
2022/02/12 22:44:34;;;;;;;8.93;7.63;;;4.50;32.60;;;;;;10521211;28;20222;-68
2022/02/12 22:49:37;;;;;;;8.80;7.90;;;4.50;32.70;;;;;;10517134;28;20224;-68
2022/02/12 22:54:40;;;;;;;9.20;7.70;;;4.50;32.60;;;;;;10520271;28;20702;-68
2022/02/12 22:59:46;;;;;;;9.93;7.50;;;4.50;32.70;;;;;;10516237;28;20224;-68
2022/02/12 23:04:50;;;;;;;9.47;7.60;;;4.50;32.70;;;;;;10521968;28;20215;-68
2022/02/12 23:09:54;;;;;;;9.80;8.03;;;4.50;32.60;;;;;;10519461;28;20613;-68
2022/02/12 23:14:58;;;;;;;6.80;6.10;;;4.40;32.50;;;;;;10521247;28;20215;-68
2022/02/12 23:20:02;;;;;;;8.90;7.47;;;4.40;32.50;;;;;;10518667;28;20234;-68
2022/02/12 23:25:14;;;;;;;8.77;7.87;;;4.40;32.60;;;;;;10520208;28;20508;-68
2022/02/12 23:30:19;;;;;;;6.93;5.90;;;4.40;32.50;;;;;;10520902;28;20336;-68
2022/02/12 23:35:22;;;;;;;7.73;6.43;;;4.40;32.60;;;;;;10522742;28;20746;-68
2022/02/12 23:40:25;;;;;;;8.23;7.23;;;4.20;32.40;;;;;;10523079;28;20235;-68
2022/02/12 23:45:30;;;;;;;7.03;6.20;;;4.30;32.60;;;;;;10527802;28;20231;-68
2022/02/12 23:50:34;;;;;;;8.00;7.10;;;4.10;32.50;;;;;;10520190;28;20699;-68
2022/02/12 23:55:37;;;;;;;7.40;6.10;;;4.00;32.50;;;;;;10527264;28;20227;-68
